Central Sierra Snow Lab Weather observations

Data are for 10 minute period ending at time listed.
 Day   Time    Incoming  Reflected   Ave.   Ave.    Ave.    Vector  Max.    Ave.    Total    Snow   
  of    of      Solar     Solar      Air    Rel.    Wind    Wind    Wind   Baro.   Precip.   Depth  
Year   Day     Radiation Radiation   Temp.  Humid.  Speed   Dir.    Gust   Press.                   
2014   (PST)    Kw/m2     Kw/m2       F       %      mph     deg.    mph     mb.     in.      in.   
----------------------------------------------------------------------------------------------------
 263   16:50    0.046     999.000     65.7     41     1.0     202     3.8   792.70   15.03   -358.80  
 263   17:00    0.037     999.000     65.3     42     1.7     194     2.9   792.80   15.03   -358.90  
 263   17:10    0.036     999.000     64.9     44     1.1     192     4.4   792.90   15.03   -358.90  
 263   17:20    0.028     999.000     64.5     45     1.1     221     2.9   793.10   15.03   -358.80  
 263   17:30    0.012     999.000     63.8     47     1.0     247     2.8   793.20   15.03   -358.80  
 263   17:40    0.012     999.000     63.4     47     1.0     211     2.9   793.30   15.03   -358.80  
 263   17:50    0.008     999.000     63.0     47     1.4     214     3.7   793.40   15.03   -358.80  
 263   18:00    0.006     999.000     62.6     47     0.5     304     1.6   793.20   15.03   -358.80  
 263   18:10    0.002     999.000     62.2     48     0.6      38     2.0   793.10   15.03   -358.80  
 263   18:20    0.001     999.000     61.8     48     0.9      82     2.5   793.20   15.03   -358.80  
 263   18:30    0.000     999.000     61.4     49     0.9     170     1.9   793.20   15.03   -358.80  
 263   18:40    0.000     999.000     60.8     50     0.4     177     1.7   793.20   15.03   -358.80  
 263   18:50    0.000     999.000     60.2     52     0.8      38     2.3   793.20   15.03   -358.90  
 263   19:00    0.000     999.000     59.8     52     0.7      88     1.7   793.20   15.03   -358.80  
 263   19:10    0.000     999.000     59.5     53     0.1     348     1.4   793.50   15.03   -358.90  
 263   19:20    0.000     999.000     58.9     54     0.1      10     1.4   793.70   15.03   -358.90  
 263   19:30    0.000     999.000     58.6     55     0.3      33     1.8   793.80   15.03   -359.00  
 263   19:40    0.000     999.000     58.3     55     1.0      25     2.6   793.90   15.03   -358.90  
 263   19:50    0.000     999.000     58.1     55     0.0       0     0.0   793.90   15.03   -359.00  
 263   20:00    0.000     999.000     58.0     55     0.1      32     1.0   794.00   15.04   -359.00  
 263   20:10    0.000     999.000     57.9     56     0.5      18     1.8   794.00   15.03   -358.90  
 263   20:20    0.000     999.000     57.9     56     0.1      43     1.5   794.00   15.04   -358.90  
 263   20:30    0.000     999.000     58.1     57     0.4     113     1.5   794.10   15.03   -358.90  
 263   20:40    0.000     999.000     58.3     58     0.7     299     1.9   794.00   15.04   -358.90  
 263   20:50    0.000     999.000     58.0     58     0.5     235     2.6   794.20   15.04   -358.90  
 263   21:00    0.000     999.000     58.0     59     0.6     175     2.5   794.20   15.04   -358.80  
 263   21:10    0.000     999.000     57.8     60     0.1     196     2.4   794.20   15.04   -358.80  
 263   21:20    0.000     999.000     57.7     60     0.5     156     1.7   794.00   15.04   -358.80  
 263   21:30    0.000     999.000     57.6     61     0.4     168     1.8   794.00   15.04   -358.90  
 263   21:40    0.000     999.000     57.4     61     0.9     174     1.7   794.10   15.03   -358.80  
 263   21:50    0.000     999.000     57.3     61     0.8     138     2.7   794.30   15.04   -358.90  
 263   22:00    0.000     999.000     57.3     61     0.3     284     2.0   794.40   15.03   -358.80  
 263   22:10    0.000     999.000     57.2     61     0.3      24     1.5   794.30   15.03   -358.90  
 263   22:20    0.000     999.000     57.2     61     0.1      25     1.2   794.30   15.04   -358.90  
 263   22:30    0.000     999.000     57.0     62     0.2      39     1.1   794.30   15.04   -358.90  
 263   22:40    0.000     999.000     56.9     61     0.0      58     0.8   794.30   15.04   -358.90  
 263   22:50    0.000     999.000     56.8     61     0.0       0     0.0   794.40   15.04   -358.90  
 263   23:00    0.000     999.000     56.7     62     0.1      23     1.2   794.30   15.04   -358.90  
 263   23:10    0.000     999.000     56.6     62     0.0       0     0.0   794.10   15.04   -358.90  
 263   23:20    0.000     999.000     56.4     61     0.0       0     0.0   794.10   15.04   -358.90  
 263   23:30    0.000     999.000     56.2     62     0.0       0     0.0   794.10   15.04   -358.90  
 263   23:40    0.000     999.000     56.0     62     0.8      18     2.2   794.10   15.04   -358.90  
 263   23:50    0.000     999.000     55.8     63     0.5       3     1.8   794.10   15.04   -358.90  
 264    0:00    0.000     999.000     55.5     63     0.3      30     2.1   794.10   15.04   -358.90  
 264    0:10    0.000     999.000     55.2     63     0.3      42     1.4   794.00   15.04   -358.90  
 264    0:20    0.000     999.000     54.9     63     0.6      32     1.4   794.00   15.04   -358.90  
 264    0:30    0.000     999.000     54.7     63     1.7      24     2.7   794.00   15.04   -358.90  
 264    0:40    0.000     999.000     54.5     64     1.8      29     2.8   794.00   15.04   -358.90  
 264    0:50    0.000     999.000     54.3     64     1.3      21     2.9   794.00   15.04   -358.90  
 264    1:00    0.000     999.000     54.0     64     0.6      50     1.6   793.90   15.04   -358.80  
 264    1:10    0.000     999.000     53.8     65     1.0      28     2.2   793.80   15.04   -358.90  
 264    1:20    0.000     999.000     53.6     64     1.9      28     2.5   793.80   15.04   -358.90  
 264    1:30    0.000     999.000     53.5     65     0.3      19     1.9   793.70   15.04   -358.80  
 264    1:40    0.000     999.000     53.3     65     0.0       0     0.0   793.60   15.04   -358.80  
 264    1:50    0.000     999.000     53.0     66     1.3      29     2.1   793.50   15.04   -358.80  
 264    2:00    0.000     999.000     52.8     65     1.7      29     2.9   793.40   15.04   -358.80  
 264    2:10    0.000     999.000     52.7     65     1.1      28     2.5   793.40   15.04   -358.80  
 264    2:20    0.000     999.000     52.6     65     1.0     348     2.5   793.40   15.04   -358.80  
 264    2:30    0.000     999.000     52.4     65     1.8      22     3.8   793.30   15.04   -358.80  
 264    2:40    0.000     999.000     52.1     66     1.7      28     2.5   793.30   15.04   -358.80  
 264    2:50    0.000     999.000     52.0     66     1.7      27     2.8   793.20   15.04   -358.80  
 264    3:00    0.000     999.000     51.9     66     0.4      24     1.8   793.10   15.04   -358.80  
 264    3:10    0.000     999.000     51.8     66     0.8      63     2.8   793.00   15.04   -358.80  
 264    3:20    0.000     999.000     51.8     66     0.5      46     1.4   792.90   15.04   -358.80  
 264    3:30    0.000     999.000     51.6     66     0.2      27     1.3   792.90   15.04   -358.80  
 264    3:40    0.000     999.000     51.5     66     1.9      26     3.6   793.00   15.04   -358.90  
 264    3:50    0.000     999.000     51.7     65     1.4      42     3.2   793.00   15.04   -358.90  
 264    4:00    0.000     999.000     51.7     65     0.9      41     2.8   793.00   15.04   -358.90  
 264    4:10    0.000     999.000     52.0     64     1.5      32     2.5   793.00   15.04   -358.90  
 264    4:20    0.000     999.000     52.4     63     0.8      40     2.4   793.10   15.04   -358.90  
 264    4:30    0.000     999.000     53.1     62     0.9      26     3.9   793.00   15.04   -358.90  
 264    4:40    0.000     999.000     53.6     62     1.3      40     4.9   793.00   15.04   -358.90  
 264    4:50    0.000     999.000     53.9     62     0.7      78     2.0   793.00   15.04   -358.90  
 264    5:00    0.000     999.000     54.0     62     0.7      55     3.6   792.90   15.04   -358.90  
 264    5:10    0.000     999.000     54.2     62     1.3     196     2.5   793.10   15.04   -358.80  
 264    5:20    0.000     999.000     53.5     64     1.6     104     3.2   793.20   15.04   -358.90  
 264    5:30    0.000     999.000     53.2     64     1.4      29     3.0   793.30   15.04   -358.90  
 264    5:40    0.000     999.000     53.2     64     1.0      24     2.0   793.30   15.04   -358.90  
 264    5:50    0.000     999.000     53.2     63     1.2      36     2.4   793.30   15.04   -358.90  
 264    6:00    0.003     999.000     53.1     63     0.9     108     2.2   793.30   15.04   -358.90  
 264    6:10    0.005     999.000     53.2     63     0.6      20     2.3   793.30   15.04   -358.80  
 264    6:20    0.008     999.000     53.1     64     0.4     299     1.6   793.40   15.04   -358.80  
 264    6:30    0.014     999.000     52.9     64     1.3      32     3.0   793.50   15.04   -358.90  
 264    6:40    0.018     999.000     53.0     63     1.1      37     3.2   793.60   15.04   -358.90  
 264    6:50    0.025     999.000     53.2     63     0.3      35     2.0   793.60   15.04   -358.90  
 264    7:00    0.031     999.000     53.3     64     0.3     290     1.5   793.70   15.04   -358.80  
 264    7:10    0.030     999.000     53.5     64     0.0       0     0.0   793.80   15.04   -358.80  
 264    7:20    0.032     999.000     53.6     65     0.0       0     0.0   793.90   15.04   -358.80  
 264    7:30    0.040     999.000     53.9     63     0.0     100     0.7   793.90   15.04   -358.80  
 264    7:40    0.055     999.000     54.2     64     0.1     118     1.3   793.90   15.04   -358.80  
 264    7:50    0.055     999.000     54.5     64     0.0       0     0.0   793.90   15.04   -358.80  
 264    8:00    0.057     999.000     54.6     63     0.6     114     4.9   794.00   15.04   -358.80  
 264    8:10    0.074     999.000     55.1     61     1.6      50     5.4   794.00   15.04   -358.90  
 264    8:20    0.081     999.000     55.6     58     2.0      40     5.3   794.00   15.04   -358.90  
 264    8:30    0.071     999.000     55.7     59     1.0      33     4.4   794.10   15.04   -358.90  
 264    8:40    0.057     999.000     55.4     63     1.1     348     2.6   794.20   15.04   -358.80  
 264    8:50    0.057     999.000     54.6     67     0.7     348     1.9   794.20   15.04   -358.80  
 264    9:00    0.062     999.000     54.0     74     0.6      29     1.6   794.30   15.05   -358.80  
 264    9:10    0.075     999.000     53.3     79     0.0      32     0.9   794.40   15.06   -358.80  
 264    9:20    0.075     999.000     52.8     84     0.0       0     0.0   794.50   15.06   -358.80  
 264    9:30    0.071     999.000     52.5     83     0.0       0     0.0   794.60   15.06   -358.80  
 264    9:40    0.073     999.000     52.5     85     0.0       0     0.0   794.70   15.06   -358.70  
 264    9:50    0.070     999.000     52.6     87     0.1     201     1.8   794.70   15.06   -358.70  
 264   10:00    0.078     999.000     52.3     86     0.9     195     2.9   794.80   15.06   -358.70  
 264   10:10    0.076     999.000     52.0     87     0.4     228     1.8   794.80   15.06   -358.70  
 264   10:20    0.073     999.000     52.0     81     0.7     213     1.8   794.90   15.07   -358.70  
 264   10:30    0.085     999.000     52.1     82     0.4     178     1.4   794.90   15.07   -358.80  
 264   10:40    0.092     999.000     52.1     86     0.3     202     2.4   794.90   15.08   -358.80  
 264   10:50    0.122     999.000     51.7     86     1.7     177     2.8   794.80   15.08   -358.80  
 264   11:00    0.149     999.000     52.0     87     0.5     163     2.1   794.70   15.08   -358.80  
 264   11:10    0.243     999.000     52.6     79     1.0     278     2.2   794.70   15.08   -358.80  
 264   11:20    0.177     999.000     53.0     76     0.9     270     3.4   794.60   15.08   -358.80  
 264   11:30    0.166     999.000     53.2     77     1.0     247     2.4   794.60   15.08   -358.80  
 264   11:40    0.190     999.000     53.4     78     1.0     228     2.5   794.60   15.08   -358.80  
 264   11:50    0.192     999.000     53.9     75     1.4     244     3.0   794.60   15.08   -358.80  
 264   12:00    0.222     999.000     53.8     73     2.3     260     4.2   794.60   15.08   -358.80  
 264   12:10    0.179     999.000     54.1     72     1.5     247     4.0   794.50   15.08   -358.80  
 264   12:20    0.184     999.000     54.4     71     1.3     244     4.0   794.40   15.08   -358.80  
 264   12:30    0.208     999.000     54.7     70     1.5     222     4.3   794.30   15.08   -358.80  
 264   12:40    0.232     999.000     55.0     70     1.5     216     3.2   794.30   15.09   -358.80  
 264   12:50    0.226     999.000     55.7     69     1.3     215     3.8   794.20   15.08   -358.80  
 264   13:00    0.205     999.000     55.9     69     1.9     190     3.8   794.20   15.08   -358.80  
 264   13:10    0.113     999.000     55.7     67     2.2     196     6.1   794.20   15.08   -358.80  
 264   13:20    0.091     999.000     55.6     68     1.3     229     4.2   794.30   15.08   -358.80  
 264   13:30    0.066     999.000     55.1     69     2.2     195     4.8   794.30   15.08   -358.80  
 264   13:40    0.070     999.000     54.7     69     1.8     193     4.8   794.30   15.08   -358.80  
 264   13:50    0.149     999.000     55.0     69     1.2     210     3.1   794.30   15.08   -358.80  
 264   14:00    0.238     999.000     55.8     66     1.6     252     4.3   794.20   15.08   -358.80  
 264   14:10    0.207     999.000     56.1     64     1.5     244     4.7   794.30   15.08   -358.80  
 264   14:20    0.143     999.000     56.2     64     2.3     194     4.6   794.20   15.08   -358.80  
 264   14:30    0.224     999.000     56.4     64     2.1     193     3.9   794.10   15.08   -358.80  
 264   14:40    0.251     999.000     57.0     62     2.3     181     4.6   794.10   15.08   -358.80  
 264   14:50    0.216     999.000     57.2     61     2.0     213     4.8   794.10   15.08   -358.80  
 264   15:00    0.289     999.000     57.9     57     2.5     246     8.7   794.20   15.08   -358.80  
 264   15:10    0.458     999.000     59.3     52     2.2     223     7.6   794.10   15.08   -358.80  
 264   15:20    0.173     999.000     59.1     52     2.5     209     6.5   794.10   15.08   -358.80  
 264   15:30    0.178     999.000     58.4     54     2.4     196     6.7   794.10   15.08   -358.80  
 264   15:40    0.179     999.000     58.0     54     3.0     191     7.6   794.00   15.08   -358.80  
 264   15:50    0.138     999.000     58.0     54     2.3     209     6.4   794.00   15.08   -358.80  
 264   16:00    0.116     999.000     57.9     54     1.9     213     5.9   794.10   15.08   -358.80  
 264   16:10    0.102     999.000     58.0     54     1.9     221     5.0   794.10   15.08   -358.80  
 264   16:20    0.073     999.000     57.6     54     2.0     211     5.5   794.20   15.08   -358.80  
 264   16:30    0.066     999.000     57.1     54     1.5     228     6.8   794.20   15.08   -358.80  
 264   16:40    0.073     999.000     56.9     54     1.5     192     3.1   794.10   15.08   -358.80  

Return to Central Sierra Snow Lab graphs page.


Western Regional Climate Center,wrcc@dri.edu